createdAt,value
2023-02-11T00:00:51.811Z,-3.57
2023-02-11T00:01:53.704Z,-3.56
2023-02-11T00:02:55.438Z,-3.54
2023-02-11T00:03:58.847Z,-3.56
2023-02-11T00:05:04.209Z,-3.56
2023-02-11T00:06:11.233Z,-3.56
2023-02-11T00:07:12.906Z,-3.62
2023-02-11T00:08:17.096Z,-3.59
2023-02-11T00:09:18.820Z,-3.56
2023-02-11T00:10:20.553Z,-3.56
2023-02-11T00:11:25.621Z,-3.56
2023-02-11T00:12:27.322Z,-3.57
2023-02-11T00:13:30.019Z,-3.59
2023-02-11T00:14:31.992Z,-3.59
2023-02-11T00:15:33.701Z,-3.62
2023-02-11T00:16:35.513Z,-3.66
2023-02-11T00:17:37.370Z,-3.70
2023-02-11T00:18:39.602Z,-3.59
2023-02-11T00:19:41.315Z,-3.64
2023-02-11T00:20:43.468Z,-3.67
2023-02-11T00:21:45.170Z,-3.71
2023-02-11T00:22:46.895Z,-3.61
2023-02-11T00:23:49.307Z,-3.57
2023-02-11T00:24:51.018Z,-3.60
2023-02-11T00:25:53.030Z,-3.55
2023-02-11T00:26:54.817Z,-3.55
2023-02-11T00:27:56.522Z,-3.54
2023-02-11T00:28:59.180Z,-3.57
2023-02-11T00:30:02.363Z,-3.64
2023-02-11T00:31:04.335Z,-3.59
2023-02-11T00:32:08.999Z,-3.61
2023-02-11T00:33:10.750Z,-3.60
2023-02-11T00:34:12.470Z,-3.61
2023-02-11T00:35:14.191Z,-3.61
2023-02-11T00:36:23.145Z,-3.57
2023-02-11T00:37:24.874Z,-3.59
2023-02-11T00:38:26.565Z,-3.58
2023-02-11T00:39:28.674Z,-3.59
2023-02-11T00:40:30.411Z,-3.57
2023-02-11T00:41:32.170Z,-3.59
2023-02-11T00:42:35.742Z,-3.67
2023-02-11T00:43:37.457Z,-3.57
2023-02-11T00:44:39.247Z,-3.56
2023-02-11T00:45:40.942Z,-3.62
2023-02-11T00:46:42.958Z,-3.61
2023-02-11T00:47:44.742Z,-3.54
2023-02-11T00:48:46.449Z,-3.67
2023-02-11T00:49:48.162Z,-3.76
2023-02-11T00:50:49.860Z,-3.77
2023-02-11T00:51:51.611Z,-3.72
2023-02-11T00:52:53.311Z,-3.67
2023-02-11T00:53:55.405Z,-3.61
2023-02-11T00:54:57.235Z,-3.58
2023-02-11T00:55:59.193Z,-3.58
2023-02-11T00:57:01.176Z,-3.65
2023-02-11T00:58:03.006Z,-3.55
2023-02-11T00:59:04.709Z,-3.55
2023-02-11T01:00:07.514Z,-3.57
2023-02-11T01:01:09.273Z,-3.61
2023-02-11T01:02:11.050Z,-3.64
2023-02-11T01:03:12.764Z,-3.65
2023-02-11T01:04:14.454Z,-3.71
2023-02-11T01:05:16.204Z,-3.79
2023-02-11T01:06:18.179Z,-3.68
2023-02-11T01:07:19.938Z,-3.64
2023-02-11T01:08:21.689Z,-3.65
2023-02-11T01:09:23.404Z,-3.62
2023-02-11T01:10:25.677Z,-3.66
2023-02-11T01:11:27.427Z,-3.56
2023-02-11T01:12:29.123Z,-3.56
2023-02-11T01:13:32.578Z,-3.56
2023-02-11T01:14:34.347Z,-3.59
2023-02-11T01:15:36.130Z,-3.54
2023-02-11T01:16:37.892Z,-3.55
2023-02-11T01:17:39.646Z,-3.59
2023-02-11T01:18:44.417Z,-3.53
2023-02-11T01:19:46.293Z,-3.58
2023-02-11T01:20:47.981Z,-3.67
2023-02-11T01:21:49.703Z,-3.62
2023-02-11T01:22:51.436Z,-3.56
2023-02-11T01:23:53.213Z,-3.58
2023-02-11T01:24:54.943Z,-3.59
2023-02-11T01:25:56.895Z,-3.50
2023-02-11T01:26:58.713Z,-3.51
2023-02-11T01:28:00.458Z,-3.54
2023-02-11T01:29:02.244Z,-3.57
2023-02-11T01:30:05.854Z,-3.61
2023-02-11T01:31:07.754Z,-3.61
2023-02-11T01:32:09.627Z,-3.63
2023-02-11T01:33:11.584Z,-3.57
2023-02-11T01:34:13.463Z,-3.61
2023-02-11T01:35:15.267Z,-3.85
2023-02-11T01:36:17.029Z,-3.70
2023-02-11T01:37:18.723Z,-3.97
2023-02-11T01:38:26.184Z,-3.68
2023-02-11T01:39:27.991Z,-3.66
2023-02-11T01:40:29.733Z,-3.62
2023-02-11T01:41:31.593Z,-3.71
2023-02-11T01:42:33.578Z,-3.71
2023-02-11T01:43:48.195Z,-3.66
2023-02-11T01:44:51.553Z,-3.65
2023-02-11T01:46:01.292Z,-3.71
2023-02-11T01:47:06.160Z,-3.64
2023-02-11T01:48:10.500Z,-3.72
2023-02-11T01:49:27.080Z,-3.70
2023-02-11T01:50:29.119Z,-3.65
2023-02-11T01:51:40.237Z,-3.57
2023-02-11T01:52:42.730Z,-3.61
2023-02-11T01:54:05.089Z,-3.64
2023-02-11T01:55:29.718Z,-3.66
2023-02-11T01:56:50.207Z,-3.68
2023-02-11T01:57:57.084Z,-3.64
2023-02-11T01:59:07.928Z,-3.75
2023-02-11T02:00:21.064Z,-3.78
2023-02-11T02:01:26.920Z,-3.79
2023-02-11T02:02:37.581Z,-3.76
2023-02-11T02:03:43.952Z,-3.75
2023-02-11T02:05:21.521Z,-3.81
2023-02-11T02:06:30.592Z,-3.90
2023-02-11T02:07:42.926Z,-3.92
2023-02-11T02:09:02.905Z,-3.90
2023-02-11T02:10:11.595Z,-3.88
2023-02-11T02:11:13.530Z,-3.91
2023-02-11T02:12:15.273Z,-3.93
2023-02-11T02:13:17.503Z,-3.96
2023-02-11T02:14:19.638Z,-4.01
2023-02-11T02:15:25.733Z,-3.99
2023-02-11T02:16:34.306Z,-4.10
2023-02-11T02:17:52.801Z,-4.16
2023-02-11T02:19:39.508Z,-4.11
2023-02-11T02:21:10.660Z,-4.11
2023-02-11T02:22:30.721Z,-4.13
2023-02-11T02:23:41.504Z,-4.20
2023-02-11T02:24:56.786Z,-4.29
2023-02-11T02:25:58.471Z,-4.45
2023-02-11T02:27:27.370Z,-4.54
2023-02-11T02:28:58.109Z,-4.52
2023-02-11T02:30:16.703Z,-4.50
2023-02-11T02:31:37.516Z,-4.49
2023-02-11T02:33:22.297Z,-4.54
2023-02-11T02:34:35.646Z,-4.58
2023-02-11T02:35:58.671Z,-4.50
2023-02-11T02:37:45.052Z,-4.47
2023-02-11T02:38:58.598Z,-4.46
2023-02-11T02:40:08.076Z,-4.51
2023-02-11T02:41:16.954Z,-4.49
2023-02-11T02:42:20.323Z,-4.50
2023-02-11T02:43:23.866Z,-4.47
2023-02-11T02:44:26.090Z,-4.57
2023-02-11T02:45:28.108Z,-4.51
2023-02-11T02:46:32.905Z,-4.50
2023-02-11T02:47:34.662Z,-4.50
2023-02-11T02:48:36.413Z,-4.54
2023-02-11T02:49:38.116Z,-4.53
2023-02-11T02:50:39.887Z,-4.51
2023-02-11T02:52:07.273Z,-4.53
2023-02-11T02:53:32.604Z,-4.71
2023-02-11T02:55:00.165Z,-4.59
2023-02-11T02:56:40.468Z,-4.58
2023-02-11T02:57:53.177Z,-4.59
2023-02-11T02:59:09.696Z,-4.61
2023-02-11T03:00:27.773Z,-4.61
2023-02-11T03:01:53.288Z,-4.63
2023-02-11T03:03:17.518Z,-4.61
2023-02-11T03:04:47.003Z,-4.61
2023-02-11T03:05:53.368Z,-4.64
2023-02-11T03:07:11.891Z,-4.64
2023-02-11T03:08:40.873Z,-4.62
2023-02-11T03:10:10.732Z,-4.60
2023-02-11T03:11:15.408Z,-4.59
2023-02-11T03:12:17.844Z,-4.66
2023-02-11T03:13:26.783Z,-4.62
2023-02-11T03:14:30.776Z,-4.61
2023-02-11T03:15:37.714Z,-4.70
2023-02-11T03:16:39.839Z,-4.63
2023-02-11T03:17:47.646Z,-4.73
2023-02-11T03:19:02.176Z,-4.73
2023-02-11T03:20:06.356Z,-4.79
2023-02-11T03:21:10.358Z,-4.72
2023-02-11T03:22:20.085Z,-4.70
2023-02-11T03:23:33.052Z,-4.72
2023-02-11T03:24:38.472Z,-4.74
2023-02-11T03:25:53.095Z,-4.70
2023-02-11T03:26:58.307Z,-4.72
2023-02-11T03:28:12.694Z,-4.73
2023-02-11T03:29:28.387Z,-4.74
2023-02-11T03:30:40.383Z,-4.84
2023-02-11T03:31:53.612Z,-4.93
2023-02-11T03:33:05.904Z,-5.00
2023-02-11T03:34:15.823Z,-5.12
2023-02-11T03:35:23.266Z,-5.08
2023-02-11T03:36:46.159Z,-5.09
2023-02-11T03:38:08.275Z,-5.18
2023-02-11T03:39:13.392Z,-5.05
2023-02-11T03:40:32.670Z,-5.07
2023-02-11T03:41:35.697Z,-5.07
2023-02-11T03:42:46.253Z,-5.11
2023-02-11T03:43:52.417Z,-5.25
2023-02-11T03:45:00.941Z,-5.17
2023-02-11T03:46:03.927Z,-5.17
2023-02-11T03:47:09.539Z,-5.23
2023-02-11T03:48:39.342Z,-5.24
2023-02-11T03:49:43.728Z,-5.24
2023-02-11T03:50:48.600Z,-5.22
2023-02-11T03:51:53.164Z,-5.19
2023-02-11T03:52:56.956Z,-5.21
2023-02-11T03:54:02.175Z,-5.18
2023-02-11T03:55:11.319Z,-5.16
2023-02-11T03:56:19.727Z,-5.14
2023-02-11T03:57:21.538Z,-5.15
2023-02-11T03:58:23.310Z,-5.31
2023-02-11T03:59:25.468Z,-5.38
2023-02-11T04:00:39.780Z,-5.37
2023-02-11T04:01:41.524Z,-5.34
2023-02-11T04:02:44.382Z,-5.36
2023-02-11T04:03:46.097Z,-5.51
2023-02-11T04:04:47.920Z,-5.45
2023-02-11T04:05:49.998Z,-5.40
2023-02-11T04:06:51.933Z,-5.50
2023-02-11T04:07:53.697Z,-5.44
2023-02-11T04:08:55.397Z,-5.44
2023-02-11T04:09:57.100Z,-5.41
2023-02-11T04:10:59.023Z,-5.41
2023-02-11T04:12:00.803Z,-5.42
2023-02-11T04:13:02.758Z,-5.47
2023-02-11T04:14:04.487Z,-5.55
2023-02-11T04:15:07.003Z,-5.42
2023-02-11T04:16:08.704Z,-5.36
2023-02-11T04:17:10.821Z,-5.43
2023-02-11T04:18:12.551Z,-5.33
2023-02-11T04:19:14.305Z,-5.45
2023-02-11T04:20:16.129Z,-5.37
2023-02-11T04:21:17.857Z,-5.45
2023-02-11T04:22:19.600Z,-5.50
2023-02-11T04:23:21.299Z,-5.44
2023-02-11T04:24:23.166Z,-5.49
2023-02-11T04:25:26.074Z,-5.45
2023-02-11T04:26:27.791Z,-5.44
2023-02-11T04:27:30.051Z,-5.40
2023-02-11T04:28:31.876Z,-5.55
2023-02-11T04:29:33.711Z,-5.46
2023-02-11T04:30:35.415Z,-5.51
2023-02-11T04:31:37.291Z,-5.50
2023-02-11T04:32:39.110Z,-5.48
2023-02-11T04:33:40.814Z,-5.46
2023-02-11T04:34:42.567Z,-5.45
2023-02-11T04:35:44.393Z,-5.42
2023-02-11T04:36:46.111Z,-5.41
2023-02-11T04:37:47.848Z,-5.41
2023-02-11T04:38:49.568Z,-5.38
2023-02-11T04:39:51.274Z,-5.42
2023-02-11T04:40:53.011Z,-5.37
2023-02-11T04:41:54.777Z,-5.41
2023-02-11T04:42:56.457Z,-5.36
2023-02-11T04:43:58.299Z,-5.35
2023-02-11T04:45:00.044Z,-5.44
2023-02-11T04:46:01.823Z,-5.41
2023-02-11T04:47:03.659Z,-5.48
2023-02-11T04:48:05.523Z,-5.41
2023-02-11T04:49:07.272Z,-5.46
2023-02-11T04:50:09.329Z,-5.51
2023-02-11T04:51:11.723Z,-5.54
2023-02-11T04:52:13.432Z,-5.62
2023-02-11T04:53:15.129Z,-5.57
2023-02-11T04:54:17.549Z,-5.65
2023-02-11T04:55:19.368Z,-5.64
2023-02-11T04:56:21.098Z,-5.62
2023-02-11T04:57:22.866Z,-5.58
2023-02-11T04:58:24.571Z,-5.59
2023-02-11T04:59:26.292Z,-5.53
2023-02-11T05:00:27.987Z,-5.53
2023-02-11T05:01:29.754Z,-5.50
2023-02-11T05:02:32.119Z,-5.44
2023-02-11T05:03:33.880Z,-5.44
2023-02-11T05:04:35.600Z,-5.42
2023-02-11T05:05:42.170Z,-5.41
2023-02-11T05:06:43.888Z,-5.39
2023-02-11T05:07:45.659Z,-5.39
2023-02-11T05:08:47.463Z,-5.39
2023-02-11T05:09:49.182Z,-5.41
2023-02-11T05:10:50.877Z,-5.42
2023-02-11T05:11:53.704Z,-5.34
2023-02-11T05:12:56.072Z,-5.41
2023-02-11T05:13:57.953Z,-5.30
2023-02-11T05:14:59.653Z,-5.32
2023-02-11T05:16:01.463Z,-5.30
2023-02-11T05:17:03.317Z,-5.27
2023-02-11T05:18:05.259Z,-5.25
2023-02-11T05:19:06.984Z,-5.21
2023-02-11T05:20:09.396Z,-5.21
2023-02-11T05:21:15.957Z,-5.20
2023-02-11T05:22:17.699Z,-5.38
2023-02-11T05:23:19.464Z,-5.51
2023-02-11T05:24:21.244Z,-5.32
2023-02-11T05:25:22.969Z,-5.46
2023-02-11T05:26:25.195Z,-5.45
2023-02-11T05:27:26.911Z,-5.42
2023-02-11T05:28:29.138Z,-5.30
2023-02-11T05:29:31.010Z,-5.26
2023-02-11T05:30:33.081Z,-5.31
2023-02-11T05:31:34.824Z,-5.25
2023-02-11T05:32:36.577Z,-5.28
2023-02-11T05:33:38.533Z,-5.20
2023-02-11T05:34:40.261Z,-5.33
2023-02-11T05:35:42.005Z,-5.22
2023-02-11T05:36:43.773Z,-5.30
2023-02-11T05:37:45.564Z,-5.19
2023-02-11T05:38:47.317Z,-5.15
2023-02-11T05:39:49.081Z,-5.15
2023-02-11T05:40:50.770Z,-5.14
2023-02-11T05:41:52.517Z,-5.12
2023-02-11T05:42:54.387Z,-5.11
2023-02-11T05:43:56.137Z,-5.07
2023-02-11T05:44:58.074Z,-5.09
2023-02-11T05:45:59.989Z,-5.10
2023-02-11T05:47:01.832Z,-5.03
2023-02-11T05:48:03.579Z,-4.98
2023-02-11T05:49:05.765Z,-4.93
2023-02-11T05:50:07.723Z,-4.96
2023-02-11T05:51:09.728Z,-5.05
2023-02-11T05:52:11.477Z,-5.11
2023-02-11T05:53:13.378Z,-5.10
2023-02-11T05:54:15.523Z,-5.01
2023-02-11T05:55:17.317Z,-4.99
2023-02-11T05:56:19.055Z,-5.08
2023-02-11T05:57:20.785Z,-4.90
2023-02-11T05:58:22.559Z,-4.83
2023-02-11T05:59:24.303Z,-4.92
2023-02-11T06:00:26.241Z,-4.86
2023-02-11T06:01:28.151Z,-4.77
2023-02-11T06:02:29.911Z,-4.75
2023-02-11T06:03:31.780Z,-4.82
2023-02-11T06:04:34.466Z,-4.84
2023-02-11T06:05:36.204Z,-4.96
2023-02-11T06:06:37.979Z,-4.89
2023-02-11T06:07:39.735Z,-4.77
2023-02-11T06:08:41.785Z,-4.71
2023-02-11T06:09:43.614Z,-4.66
2023-02-11T06:10:45.955Z,-4.70
2023-02-11T06:11:47.657Z,-4.59
2023-02-11T06:12:49.403Z,-4.63
2023-02-11T06:13:51.497Z,-4.46
2023-02-11T06:14:53.790Z,-4.41
2023-02-11T06:15:57.463Z,-4.42
2023-02-11T06:16:59.338Z,-4.31
2023-02-11T06:18:01.049Z,-4.29
2023-02-11T06:19:02.891Z,-4.36
2023-02-11T06:20:08.769Z,-4.18
2023-02-11T06:21:12.082Z,-4.16
2023-02-11T06:22:13.878Z,-4.09
2023-02-11T06:23:15.652Z,-4.06
2023-02-11T06:24:28.518Z,-4.02
2023-02-11T06:25:39.247Z,-3.94
2023-02-11T06:26:41.172Z,-4.00
2023-02-11T06:27:42.959Z,-3.92
2023-02-11T06:28:45.155Z,-3.86
2023-02-11T06:29:47.272Z,-3.80
2023-02-11T06:30:49.114Z,-3.75
2023-02-11T06:31:50.972Z,-3.71
2023-02-11T06:32:52.824Z,-3.66
2023-02-11T06:33:55.240Z,-3.60
2023-02-11T06:34:57.012Z,-3.51
2023-02-11T06:35:58.771Z,-3.51
2023-02-11T06:37:00.586Z,-3.49
2023-02-11T06:38:02.488Z,-3.45
2023-02-11T06:39:04.597Z,-3.35
2023-02-11T06:40:07.122Z,-3.36
2023-02-11T06:41:16.651Z,-3.27
2023-02-11T06:42:18.338Z,-3.18
2023-02-11T06:43:20.185Z,-3.15
2023-02-11T06:44:21.956Z,-3.12
2023-02-11T06:45:23.674Z,-3.03
2023-02-11T06:46:25.775Z,-3.03
2023-02-11T06:47:27.512Z,-3.07
2023-02-11T06:48:29.225Z,-3.00
2023-02-11T06:49:31.036Z,-2.83
2023-02-11T06:50:32.761Z,-2.78
2023-02-11T06:51:34.514Z,-2.73
2023-02-11T06:52:36.314Z,-2.64
2023-02-11T06:53:40.782Z,-2.56
2023-02-11T06:54:42.516Z,-2.55
2023-02-11T06:55:44.322Z,-2.52
2023-02-11T06:56:46.340Z,-2.45
2023-02-11T06:57:48.047Z,-2.36
2023-02-11T06:58:56.730Z,-2.35
2023-02-11T06:59:58.483Z,-2.22
2023-02-11T07:01:00.658Z,-2.21
2023-02-11T07:02:02.492Z,-2.06
2023-02-11T07:03:04.296Z,-1.97
2023-02-11T07:04:06.935Z,-1.87
2023-02-11T07:05:08.932Z,-1.78
2023-02-11T07:06:15.798Z,-1.63
2023-02-11T07:07:17.553Z,-1.48
2023-02-11T07:08:19.254Z,-1.24
2023-02-11T07:09:20.964Z,-1.00
2023-02-11T07:10:22.686Z,-0.66
2023-02-11T07:11:27.735Z,-0.36
2023-02-11T07:12:29.593Z,-0.10
2023-02-11T07:13:31.295Z,0.18
2023-02-11T07:14:33.017Z,0.55
2023-02-11T07:15:34.711Z,0.89
2023-02-11T07:16:37.164Z,1.32
2023-02-11T07:17:38.888Z,1.58
2023-02-11T07:18:41.060Z,2.02
2023-02-11T07:19:42.803Z,2.39
2023-02-11T07:20:44.535Z,2.88
2023-02-11T07:21:46.298Z,3.22
2023-02-11T07:22:48.077Z,3.75
2023-02-11T07:23:50.054Z,4.15
2023-02-11T07:24:51.809Z,4.52
2023-02-11T07:25:53.578Z,4.91
2023-02-11T07:26:55.293Z,5.30
2023-02-11T07:27:57.148Z,5.70
2023-02-11T07:28:58.885Z,6.03
2023-02-11T07:30:00.618Z,6.36
2023-02-11T07:31:11.031Z,6.75
2023-02-11T07:32:14.081Z,7.19
2023-02-11T07:33:15.808Z,7.42
2023-02-11T07:34:17.699Z,7.69
2023-02-11T07:35:19.426Z,8.00
2023-02-11T07:36:24.327Z,8.24
2023-02-11T07:37:26.126Z,8.55
2023-02-11T07:38:28.053Z,8.83
2023-02-11T07:39:29.849Z,9.05
2023-02-11T07:40:31.787Z,9.34
2023-02-11T07:41:37.776Z,9.65
2023-02-11T07:42:41.741Z,9.89
2023-02-11T07:43:44.024Z,10.02
2023-02-11T07:44:49.998Z,10.05
2023-02-11T07:45:52.365Z,10.10
2023-02-11T07:46:54.220Z,10.06
2023-02-11T07:47:56.085Z,10.05
2023-02-11T07:48:57.841Z,10.15
2023-02-11T07:49:59.522Z,10.22
2023-02-11T07:51:17.523Z,10.44
2023-02-11T07:52:19.300Z,10.72
2023-02-11T07:53:21.048Z,10.82
2023-02-11T07:54:22.840Z,11.11
2023-02-11T07:55:24.580Z,11.40
2023-02-11T07:56:27.547Z,11.71
2023-02-11T07:57:29.404Z,12.07
2023-02-11T07:58:33.155Z,12.43
2023-02-11T07:59:34.845Z,12.76
2023-02-11T08:00:36.668Z,13.03
2023-02-11T08:01:38.750Z,13.21
2023-02-11T08:02:40.505Z,13.39
2023-02-11T08:03:42.953Z,13.65
2023-02-11T08:04:46.951Z,13.84
2023-02-11T08:05:48.869Z,14.06
2023-02-11T08:06:52.933Z,14.23
2023-02-11T08:07:54.908Z,14.51
2023-02-11T08:08:56.829Z,14.55
2023-02-11T08:09:58.559Z,14.67
2023-02-11T08:11:07.628Z,14.87
2023-02-11T08:12:09.345Z,14.95
2023-02-11T08:13:11.034Z,15.19
2023-02-11T08:14:12.841Z,15.32
2023-02-11T08:15:14.634Z,15.38
2023-02-11T08:16:42.812Z,15.58
2023-02-11T08:17:44.540Z,15.49
2023-02-11T08:18:47.365Z,15.53
2023-02-11T08:19:49.143Z,15.62
2023-02-11T08:20:51.083Z,15.76
2023-02-11T08:21:57.081Z,15.87
2023-02-11T08:22:59.290Z,15.97
2023-02-11T08:24:04.342Z,16.09
2023-02-11T08:25:06.503Z,16.36
2023-02-11T08:26:12.050Z,16.43
2023-02-11T08:27:13.769Z,16.54
2023-02-11T08:28:15.525Z,16.52
2023-02-11T08:29:17.659Z,16.51
2023-02-11T08:30:19.603Z,16.39
2023-02-11T08:31:27.579Z,16.45
2023-02-11T08:32:29.391Z,16.47
2023-02-11T08:33:31.127Z,16.66
2023-02-11T08:34:32.835Z,16.67
2023-02-11T08:35:35.753Z,16.69
2023-02-11T08:36:39.436Z,16.69
2023-02-11T08:37:41.132Z,16.34
2023-02-11T08:38:43.644Z,15.98
2023-02-11T08:39:47.388Z,15.98
2023-02-11T08:40:49.787Z,16.17
2023-02-11T08:41:54.327Z,16.31
2023-02-11T08:42:56.038Z,16.47
2023-02-11T08:43:58.239Z,16.48
2023-02-11T08:44:59.966Z,16.54
2023-02-11T08:46:02.683Z,16.42
2023-02-11T08:47:04.560Z,16.56
2023-02-11T08:48:06.417Z,16.40
2023-02-11T08:49:08.172Z,16.33
2023-02-11T08:50:10.142Z,16.26
2023-02-11T08:51:24.305Z,16.32
2023-02-11T08:52:26.048Z,16.36
2023-02-11T08:53:27.744Z,16.39
2023-02-11T08:54:30.783Z,16.51
2023-02-11T08:55:32.576Z,16.71
2023-02-11T08:56:34.382Z,16.42
2023-02-11T08:57:36.207Z,16.47
2023-02-11T08:58:38.339Z,16.71
2023-02-11T08:59:42.824Z,16.73
2023-02-11T09:00:45.542Z,16.54
2023-02-11T09:01:47.938Z,16.64
2023-02-11T09:02:49.728Z,16.82
2023-02-11T09:03:52.077Z,16.82
2023-02-11T09:04:53.848Z,16.88
2023-02-11T09:05:57.103Z,17.00
2023-02-11T09:06:58.857Z,17.04
2023-02-11T09:08:00.563Z,16.96
2023-02-11T09:09:02.261Z,17.12
2023-02-11T09:10:04.338Z,17.60
2023-02-11T09:11:06.125Z,17.44
2023-02-11T09:12:07.961Z,17.34
2023-02-11T09:13:10.078Z,17.36
2023-02-11T09:14:20.993Z,17.39
2023-02-11T09:15:22.716Z,17.55
2023-02-11T09:16:28.008Z,17.67
2023-02-11T09:17:29.749Z,17.71
2023-02-11T09:18:32.178Z,17.53
2023-02-11T09:19:33.959Z,17.67
2023-02-11T09:20:35.684Z,17.72
2023-02-11T09:21:37.895Z,17.46
2023-02-11T09:22:39.593Z,17.51
2023-02-11T09:23:43.833Z,17.40
2023-02-11T09:24:45.627Z,17.11
2023-02-11T09:25:47.326Z,17.33
2023-02-11T09:26:49.735Z,17.42
2023-02-11T09:27:52.428Z,17.50
2023-02-11T09:28:54.780Z,17.50
2023-02-11T09:29:56.524Z,17.56
2023-02-11T09:30:58.279Z,17.65
2023-02-11T09:32:00.247Z,17.84
2023-02-11T09:33:02.212Z,18.05
2023-02-11T09:34:06.336Z,18.00
2023-02-11T09:35:08.275Z,18.23
2023-02-11T09:36:10.296Z,18.05
2023-02-11T09:37:12.005Z,18.03
2023-02-11T09:38:13.784Z,17.91
2023-02-11T09:39:20.389Z,17.84
2023-02-11T09:40:22.999Z,17.78
2023-02-11T09:41:24.674Z,17.82
2023-02-11T09:42:38.854Z,17.84
2023-02-11T09:43:48.190Z,18.02
2023-02-11T09:44:50.319Z,18.18
2023-02-11T09:45:56.087Z,18.42
2023-02-11T09:47:06.501Z,18.20
2023-02-11T09:48:20.305Z,18.37
2023-02-11T09:49:47.321Z,18.69
2023-02-11T09:50:57.772Z,18.58
2023-02-11T09:52:06.637Z,18.45
2023-02-11T09:53:17.315Z,18.55
2023-02-11T09:54:30.424Z,18.59
2023-02-11T09:55:39.910Z,18.56
2023-02-11T09:56:41.691Z,18.33
2023-02-11T09:57:43.438Z,18.24
2023-02-11T09:58:45.589Z,18.26
2023-02-11T09:59:49.414Z,18.22
2023-02-11T10:00:57.425Z,18.27
2023-02-11T10:02:12.092Z,18.31
2023-02-11T10:03:34.909Z,18.67
2023-02-11T10:05:24.065Z,18.66
2023-02-11T10:06:38.689Z,18.49
2023-02-11T10:08:10.109Z,18.50
2023-02-11T10:09:20.760Z,18.73
2023-02-11T10:10:50.883Z,18.76
2023-02-11T10:11:58.440Z,18.17
2023-02-11T10:13:37.383Z,17.97
2023-02-11T10:14:47.979Z,17.91
2023-02-11T10:16:02.013Z,17.82
2023-02-11T10:17:10.407Z,17.77
2023-02-11T10:18:18.183Z,17.90
2023-02-11T10:19:19.840Z,18.12
2023-02-11T10:20:50.260Z,18.42
2023-02-11T10:21:59.580Z,18.66
2023-02-11T10:23:10.676Z,18.81
2023-02-11T10:24:13.475Z,18.83
2023-02-11T10:25:23.086Z,18.57
2023-02-11T10:26:31.008Z,18.56
2023-02-11T10:27:35.555Z,18.48
2023-02-11T10:28:39.640Z,18.30
2023-02-11T10:29:48.358Z,18.49
2023-02-11T10:31:16.317Z,18.50
2023-02-11T10:32:49.516Z,18.19
2023-02-11T10:34:00.367Z,18.03
2023-02-11T10:35:15.266Z,18.22
2023-02-11T10:36:19.126Z,18.39
2023-02-11T10:37:20.861Z,18.27
2023-02-11T10:38:22.645Z,18.24
2023-02-11T10:39:27.172Z,18.31
2023-02-11T10:40:31.688Z,18.53
2023-02-11T10:41:38.720Z,18.55
2023-02-11T10:42:44.486Z,18.54
2023-02-11T10:43:46.182Z,18.70
2023-02-11T10:45:01.363Z,18.61
2023-02-11T10:46:04.932Z,18.48
2023-02-11T10:47:37.653Z,18.52
2023-02-11T10:48:55.320Z,18.54
2023-02-11T10:50:03.379Z,18.62
2023-02-11T10:51:13.447Z,18.83
2023-02-11T10:52:22.740Z,18.88
2023-02-11T10:53:24.571Z,18.86
2023-02-11T10:54:26.282Z,18.62
2023-02-11T10:55:28.828Z,18.61
2023-02-11T10:56:33.473Z,18.52
2023-02-11T10:57:38.352Z,18.54
2023-02-11T10:58:56.477Z,18.62
2023-02-11T11:00:30.549Z,18.72
2023-02-11T11:01:46.930Z,18.72
2023-02-11T11:02:58.447Z,18.63
2023-02-11T11:04:00.526Z,18.54
2023-02-11T11:05:06.797Z,18.30
2023-02-11T11:06:09.964Z,18.34
2023-02-11T11:07:30.114Z,18.21
2023-02-11T11:08:44.507Z,18.21
2023-02-11T11:09:49.035Z,17.95
2023-02-11T11:11:07.978Z,17.96
2023-02-11T11:12:30.966Z,18.08
2023-02-11T11:13:36.396Z,18.13
2023-02-11T11:14:38.201Z,18.02
2023-02-11T11:15:39.950Z,17.84
2023-02-11T11:16:52.793Z,17.99
2023-02-11T11:18:21.416Z,18.15
2023-02-11T11:19:25.607Z,17.96
2023-02-11T11:20:35.315Z,18.02
2023-02-11T11:21:40.953Z,17.99
2023-02-11T11:22:43.880Z,17.65
2023-02-11T11:23:52.857Z,17.65
2023-02-11T11:24:56.045Z,17.65
2023-02-11T11:26:03.781Z,17.50
2023-02-11T11:27:06.367Z,17.52
2023-02-11T11:28:22.878Z,17.55
2023-02-11T11:29:46.125Z,17.46
2023-02-11T11:30:48.295Z,17.41
2023-02-11T11:31:57.979Z,17.47
2023-02-11T11:33:01.196Z,17.47
2023-02-11T11:34:34.046Z,17.38
2023-02-11T11:35:35.823Z,17.35
2023-02-11T11:36:39.869Z,17.06
2023-02-11T11:37:42.223Z,16.96
2023-02-11T11:38:48.992Z,16.83
2023-02-11T11:40:02.854Z,16.61
2023-02-11T11:41:20.014Z,16.62
2023-02-11T11:42:26.226Z,16.60
2023-02-11T11:43:27.965Z,16.51
2023-02-11T11:44:37.680Z,16.42
2023-02-11T11:45:39.714Z,16.40
2023-02-11T11:46:44.298Z,16.48
2023-02-11T11:47:59.456Z,16.31
2023-02-11T11:49:33.057Z,16.10
2023-02-11T11:50:43.615Z,15.70
2023-02-11T11:51:55.378Z,15.58
2023-02-11T11:53:04.678Z,15.65
2023-02-11T11:54:13.609Z,15.65
2023-02-11T11:55:26.453Z,15.45
2023-02-11T11:56:32.137Z,15.51
2023-02-11T11:57:38.746Z,15.45
2023-02-11T11:58:41.051Z,15.28
2023-02-11T11:59:42.854Z,15.38
2023-02-11T12:00:52.358Z,15.43
2023-02-11T12:02:19.364Z,15.15
2023-02-11T12:04:03.781Z,15.14
2023-02-11T12:05:27.133Z,14.98
2023-02-11T12:06:41.211Z,14.85
2023-02-11T12:07:54.691Z,14.69
2023-02-11T12:09:23.224Z,14.51
2023-02-11T12:10:40.293Z,14.42
2023-02-11T12:11:48.160Z,14.19
2023-02-11T12:12:49.814Z,13.96
2023-02-11T12:14:06.564Z,13.90
2023-02-11T12:15:26.669Z,13.89
2023-02-11T12:16:50.137Z,13.71
2023-02-11T12:17:57.972Z,13.77
2023-02-11T12:19:27.912Z,13.80
2023-02-11T12:20:33.391Z,13.68
2023-02-11T12:21:56.442Z,13.63
2023-02-11T12:23:07.003Z,13.58
2023-02-11T12:24:35.245Z,13.41
2023-02-11T12:25:47.381Z,13.42
2023-02-11T12:27:10.759Z,13.36
2023-02-11T12:29:01.183Z,13.37
2023-02-11T12:30:33.112Z,13.41
2023-02-11T12:32:19.075Z,13.45
2023-02-11T12:33:26.369Z,13.52
2023-02-11T12:34:55.924Z,13.51
2023-02-11T12:36:32.122Z,13.26
2023-02-11T12:37:56.524Z,13.23
2023-02-11T12:39:07.007Z,12.85
2023-02-11T12:40:23.915Z,12.85
2023-02-11T12:41:50.658Z,12.84
2023-02-11T12:43:18.376Z,12.89
2023-02-11T12:44:40.795Z,12.78
2023-02-11T12:46:20.968Z,12.82
2023-02-11T12:47:44.319Z,12.91
2023-02-11T12:49:24.088Z,12.86
2023-02-11T12:50:25.904Z,12.91
2023-02-11T12:51:36.414Z,12.87
2023-02-11T12:52:56.387Z,12.86
2023-02-11T12:54:31.931Z,12.82
2023-02-11T12:55:46.717Z,12.84
2023-02-11T12:56:53.916Z,12.82
2023-02-11T12:57:59.579Z,12.78
2023-02-11T12:59:05.085Z,12.62
2023-02-11T13:00:47.807Z,12.66
2023-02-11T13:01:52.172Z,12.54
2023-02-11T13:03:02.101Z,12.47
2023-02-11T13:04:26.026Z,12.53
2023-02-11T13:05:34.001Z,12.51
2023-02-11T13:06:59.180Z,12.57
2023-02-11T13:08:16.221Z,12.35
2023-02-11T13:09:26.816Z,12.40
2023-02-11T13:10:36.772Z,12.44
2023-02-11T13:11:43.480Z,12.46
2023-02-11T13:13:05.920Z,12.54
2023-02-11T13:14:27.317Z,12.43
2023-02-11T13:15:30.375Z,12.37
2023-02-11T13:16:35.256Z,12.35
2023-02-11T13:17:45.077Z,12.29
2023-02-11T13:19:03.914Z,12.22
2023-02-11T13:21:04.317Z,12.17
2023-02-11T13:22:34.522Z,12.02
2023-02-11T13:23:55.126Z,11.94
2023-02-11T13:25:04.104Z,12.03
2023-02-11T13:26:19.104Z,12.09
2023-02-11T13:27:26.595Z,12.12
2023-02-11T13:28:57.558Z,12.08
2023-02-11T13:30:36.914Z,12.14
2023-02-11T13:31:38.916Z,12.10
2023-02-11T13:32:55.973Z,12.12
2023-02-11T13:33:57.761Z,12.09
2023-02-11T13:34:59.625Z,12.11
2023-02-11T13:36:04.388Z,12.12
2023-02-11T13:37:07.277Z,12.09
2023-02-11T13:38:25.982Z,12.15
2023-02-11T13:39:27.837Z,12.18
2023-02-11T13:40:39.926Z,12.15
2023-02-11T13:41:42.233Z,12.08
2023-02-11T13:42:55.516Z,12.00
2023-02-11T13:44:06.467Z,11.90
2023-02-11T13:45:40.247Z,11.87
2023-02-11T13:46:57.360Z,11.88
2023-02-11T13:48:01.769Z,11.87
2023-02-11T13:49:03.564Z,11.84
2023-02-11T13:50:08.355Z,11.95
2023-02-11T13:51:13.376Z,11.88
2023-02-11T13:52:24.608Z,11.91
2023-02-11T13:53:27.632Z,11.97
2023-02-11T13:54:39.635Z,12.02
2023-02-11T13:55:46.205Z,12.03
2023-02-11T13:57:19.839Z,12.02
2023-02-11T13:58:27.529Z,11.91
2023-02-11T13:59:30.747Z,11.76
2023-02-11T14:00:35.479Z,11.84
2023-02-11T14:02:23.052Z,11.89
2023-02-11T14:03:53.723Z,11.91
2023-02-11T14:05:43.078Z,11.90
2023-02-11T14:07:42.081Z,11.63
2023-02-11T14:08:59.391Z,11.23
2023-02-11T14:10:01.146Z,11.33
2023-02-11T14:11:24.005Z,11.40
2023-02-11T14:12:33.356Z,11.40
2023-02-11T14:13:37.160Z,11.45
2023-02-11T14:15:04.896Z,11.34
2023-02-11T14:16:36.449Z,11.45
2023-02-11T14:17:39.533Z,11.48
2023-02-11T14:18:44.303Z,11.51
2023-02-11T14:19:48.058Z,11.49
2023-02-11T14:20:50.933Z,11.52
2023-02-11T14:21:53.416Z,11.56
2023-02-11T14:22:56.308Z,11.54
2023-02-11T14:24:07.213Z,11.43
2023-02-11T14:25:24.312Z,11.39
2023-02-11T14:26:34.972Z,11.50
2023-02-11T14:28:19.362Z,11.50
2023-02-11T14:29:30.078Z,11.47
2023-02-11T14:30:45.320Z,11.39